sensor_id;sensor_type;location;lat;lon;timestamp;P1;durP1;ratioP1;P2;durP2;ratioP2
1471;SDS011;963;42.644;23.336;2022-10-22T00:01:31;15.90;;;11.03;;
1471;SDS011;963;42.644;23.336;2022-10-22T00:03:58;17.80;;;12.23;;
1471;SDS011;963;42.644;23.336;2022-10-22T00:06:24;15.80;;;13.20;;
1471;SDS011;963;42.644;23.336;2022-10-22T00:08:50;17.67;;;13.80;;
1471;SDS011;963;42.644;23.336;2022-10-22T00:11:16;17.20;;;13.50;;
1471;SDS011;963;42.644;23.336;2022-10-22T00:13:43;17.23;;;13.63;;
1471;SDS011;963;42.644;23.336;2022-10-22T00:16:10;16.60;;;12.97;;
1471;SDS011;963;42.644;23.336;2022-10-22T00:18:36;16.53;;;12.80;;
1471;SDS011;963;42.644;23.336;2022-10-22T00:21:02;19.77;;;13.93;;
1471;SDS011;963;42.644;23.336;2022-10-22T00:23:31;17.53;;;12.17;;
1471;SDS011;963;42.644;23.336;2022-10-22T00:25:57;15.43;;;12.20;;
1471;SDS011;963;42.644;23.336;2022-10-22T00:28:22;19.50;;;13.27;;
1471;SDS011;963;42.644;23.336;2022-10-22T00:30:54;16.83;;;12.70;;
1471;SDS011;963;42.644;23.336;2022-10-22T00:33:23;16.73;;;12.33;;
1471;SDS011;963;42.644;23.336;2022-10-22T00:35:49;18.63;;;12.90;;
1471;SDS011;963;42.644;23.336;2022-10-22T00:38:14;15.00;;;11.10;;
1471;SDS011;963;42.644;23.336;2022-10-22T00:40:40;23.80;;;13.67;;
1471;SDS011;963;42.644;23.336;2022-10-22T00:43:08;13.83;;;11.33;;
1471;SDS011;963;42.644;23.336;2022-10-22T00:45:38;18.47;;;12.60;;
1471;SDS011;963;42.644;23.336;2022-10-22T00:48:04;14.10;;;11.50;;
1471;SDS011;963;42.644;23.336;2022-10-22T00:50:42;14.80;;;11.80;;
1471;SDS011;963;42.644;23.336;2022-10-22T00:53:19;16.07;;;11.23;;
1471;SDS011;963;42.644;23.336;2022-10-22T00:55:49;19.73;;;12.87;;
1471;SDS011;963;42.644;23.336;2022-10-22T00:58:17;20.27;;;13.20;;
1471;SDS011;963;42.644;23.336;2022-10-22T01:00:45;14.40;;;11.63;;
1471;SDS011;963;42.644;23.336;2022-10-22T01:03:11;19.80;;;13.87;;
1471;SDS011;963;42.644;23.336;2022-10-22T01:05:41;15.47;;;10.93;;
1471;SDS011;963;42.644;23.336;2022-10-22T01:08:08;16.97;;;12.50;;
1471;SDS011;963;42.644;23.336;2022-10-22T01:10:48;19.50;;;13.70;;
1471;SDS011;963;42.644;23.336;2022-10-22T01:13:23;18.40;;;12.57;;
1471;SDS011;963;42.644;23.336;2022-10-22T01:16:14;17.13;;;12.60;;
1471;SDS011;963;42.644;23.336;2022-10-22T01:22:11;18.50;;;13.53;;
1471;SDS011;963;42.644;23.336;2022-10-22T01:30:17;17.33;;;12.73;;
1471;SDS011;963;42.644;23.336;2022-10-22T01:32:50;18.30;;;12.33;;
1471;SDS011;963;42.644;23.336;2022-10-22T01:35:24;24.33;;;13.27;;
1471;SDS011;963;42.644;23.336;2022-10-22T01:37:55;22.10;;;13.77;;
1471;SDS011;963;42.644;23.336;2022-10-22T01:40:23;17.00;;;12.70;;
1471;SDS011;963;42.644;23.336;2022-10-22T01:42:57;17.53;;;12.43;;
1471;SDS011;963;42.644;23.336;2022-10-22T01:45:24;15.40;;;11.80;;
1471;SDS011;963;42.644;23.336;2022-10-22T01:53:53;17.50;;;12.50;;
1471;SDS011;963;42.644;23.336;2022-10-22T01:59:03;23.60;;;12.53;;
1471;SDS011;963;42.644;23.336;2022-10-22T02:04:17;21.53;;;13.50;;
1471;SDS011;963;42.644;23.336;2022-10-22T02:06:50;16.23;;;13.03;;
1471;SDS011;963;42.644;23.336;2022-10-22T02:09:18;19.30;;;12.53;;
1471;SDS011;963;42.644;23.336;2022-10-22T02:11:47;20.93;;;12.10;;
1471;SDS011;963;42.644;23.336;2022-10-22T02:14:13;14.33;;;12.10;;
1471;SDS011;963;42.644;23.336;2022-10-22T02:16:42;21.13;;;13.53;;
1471;SDS011;963;42.644;23.336;2022-10-22T02:19:14;17.70;;;12.87;;
1471;SDS011;963;42.644;23.336;2022-10-22T02:21:54;17.97;;;13.00;;
1471;SDS011;963;42.644;23.336;2022-10-22T02:24:20;18.73;;;13.00;;
1471;SDS011;963;42.644;23.336;2022-10-22T02:29:23;24.33;;;13.27;;
1471;SDS011;963;42.644;23.336;2022-10-22T02:31:51;17.80;;;12.77;;
1471;SDS011;963;42.644;23.336;2022-10-22T02:34:20;15.27;;;12.37;;
1471;SDS011;963;42.644;23.336;2022-10-22T02:36:49;18.47;;;12.80;;
1471;SDS011;963;42.644;23.336;2022-10-22T02:39:16;14.70;;;12.53;;
1471;SDS011;963;42.644;23.336;2022-10-22T02:41:43;17.37;;;12.70;;
1471;SDS011;963;42.644;23.336;2022-10-22T02:44:09;15.83;;;12.40;;
1471;SDS011;963;42.644;23.336;2022-10-22T02:46:35;19.87;;;13.40;;
1471;SDS011;963;42.644;23.336;2022-10-22T02:49:02;18.60;;;13.93;;
1471;SDS011;963;42.644;23.336;2022-10-22T02:51:27;17.43;;;13.57;;
1471;SDS011;963;42.644;23.336;2022-10-22T02:53:53;22.73;;;16.43;;
1471;SDS011;963;42.644;23.336;2022-10-22T02:56:18;23.17;;;16.30;;
1471;SDS011;963;42.644;23.336;2022-10-22T02:58:43;20.27;;;16.13;;
1471;SDS011;963;42.644;23.336;2022-10-22T03:01:09;20.27;;;14.60;;
1471;SDS011;963;42.644;23.336;2022-10-22T03:03:34;20.43;;;14.30;;
1471;SDS011;963;42.644;23.336;2022-10-22T03:06:00;23.40;;;14.27;;
1471;SDS011;963;42.644;23.336;2022-10-22T03:08:25;20.47;;;14.60;;
1471;SDS011;963;42.644;23.336;2022-10-22T03:10:50;19.30;;;14.30;;
1471;SDS011;963;42.644;23.336;2022-10-22T03:13:16;19.03;;;14.23;;
1471;SDS011;963;42.644;23.336;2022-10-22T03:15:41;20.40;;;13.60;;
1471;SDS011;963;42.644;23.336;2022-10-22T03:18:07;21.17;;;13.97;;
1471;SDS011;963;42.644;23.336;2022-10-22T03:20:32;21.50;;;14.80;;
1471;SDS011;963;42.644;23.336;2022-10-22T03:22:58;20.30;;;14.67;;
1471;SDS011;963;42.644;23.336;2022-10-22T03:25:25;22.70;;;14.50;;
1471;SDS011;963;42.644;23.336;2022-10-22T03:27:52;21.40;;;15.60;;
1471;SDS011;963;42.644;23.336;2022-10-22T03:30:20;21.97;;;16.10;;
1471;SDS011;963;42.644;23.336;2022-10-22T03:32:46;22.47;;;15.97;;
1471;SDS011;963;42.644;23.336;2022-10-22T03:35:11;19.03;;;15.00;;
1471;SDS011;963;42.644;23.336;2022-10-22T03:37:37;24.20;;;16.30;;
1471;SDS011;963;42.644;23.336;2022-10-22T03:40:03;20.17;;;15.23;;
1471;SDS011;963;42.644;23.336;2022-10-22T03:42:31;21.30;;;15.30;;
1471;SDS011;963;42.644;23.336;2022-10-22T03:44:56;23.60;;;15.67;;
1471;SDS011;963;42.644;23.336;2022-10-22T03:47:22;20.13;;;14.63;;
1471;SDS011;963;42.644;23.336;2022-10-22T03:49:48;22.67;;;14.70;;
1471;SDS011;963;42.644;23.336;2022-10-22T03:52:15;21.87;;;15.00;;
1471;SDS011;963;42.644;23.336;2022-10-22T03:54:40;21.00;;;13.70;;
1471;SDS011;963;42.644;23.336;2022-10-22T03:57:07;19.73;;;13.63;;
1471;SDS011;963;42.644;23.336;2022-10-22T03:59:36;20.80;;;14.13;;
1471;SDS011;963;42.644;23.336;2022-10-22T04:02:03;21.40;;;14.00;;
1471;SDS011;963;42.644;23.336;2022-10-22T04:04:28;20.70;;;13.90;;
1471;SDS011;963;42.644;23.336;2022-10-22T04:06:54;17.00;;;13.33;;
1471;SDS011;963;42.644;23.336;2022-10-22T04:09:20;24.70;;;14.50;;
1471;SDS011;963;42.644;23.336;2022-10-22T04:11:45;22.20;;;15.30;;
1471;SDS011;963;42.644;23.336;2022-10-22T04:14:11;20.30;;;13.93;;
1471;SDS011;963;42.644;23.336;2022-10-22T04:16:38;21.77;;;14.33;;
1471;SDS011;963;42.644;23.336;2022-10-22T04:19:04;20.27;;;14.43;;
1471;SDS011;963;42.644;23.336;2022-10-22T04:21:30;18.90;;;14.23;;
1471;SDS011;963;42.644;23.336;2022-10-22T04:23:55;21.67;;;15.80;;
1471;SDS011;963;42.644;23.336;2022-10-22T04:26:21;24.50;;;16.37;;
1471;SDS011;963;42.644;23.336;2022-10-22T04:28:49;19.77;;;15.00;;
1471;SDS011;963;42.644;23.336;2022-10-22T04:31:16;26.50;;;18.47;;
1471;SDS011;963;42.644;23.336;2022-10-22T04:33:43;33.83;;;19.90;;
1471;SDS011;963;42.644;23.336;2022-10-22T04:36:09;30.80;;;20.80;;
1471;SDS011;963;42.644;23.336;2022-10-22T04:38:40;25.97;;;16.80;;
1471;SDS011;963;42.644;23.336;2022-10-22T04:41:10;25.80;;;17.63;;
1471;SDS011;963;42.644;23.336;2022-10-22T04:43:41;25.80;;;16.40;;
1471;SDS011;963;42.644;23.336;2022-10-22T04:46:06;23.77;;;17.10;;
1471;SDS011;963;42.644;23.336;2022-10-22T04:48:36;31.83;;;17.63;;
1471;SDS011;963;42.644;23.336;2022-10-22T04:51:04;25.47;;;18.23;;
1471;SDS011;963;42.644;23.336;2022-10-22T04:53:31;24.47;;;17.47;;
1471;SDS011;963;42.644;23.336;2022-10-22T04:58:31;26.53;;;17.93;;
1471;SDS011;963;42.644;23.336;2022-10-22T05:00:57;22.47;;;15.87;;
1471;SDS011;963;42.644;23.336;2022-10-22T05:03:23;23.50;;;16.67;;
1471;SDS011;963;42.644;23.336;2022-10-22T05:05:49;21.97;;;15.33;;
1471;SDS011;963;42.644;23.336;2022-10-22T05:08:14;24.70;;;15.77;;
1471;SDS011;963;42.644;23.336;2022-10-22T05:10:40;23.73;;;16.90;;
1471;SDS011;963;42.644;23.336;2022-10-22T05:13:05;21.00;;;15.60;;
1471;SDS011;963;42.644;23.336;2022-10-22T05:15:32;19.17;;;15.13;;
1471;SDS011;963;42.644;23.336;2022-10-22T05:17:58;23.00;;;15.93;;
1471;SDS011;963;42.644;23.336;2022-10-22T05:20:23;27.57;;;17.23;;
1471;SDS011;963;42.644;23.336;2022-10-22T05:22:49;23.90;;;15.83;;
1471;SDS011;963;42.644;23.336;2022-10-22T05:25:14;22.50;;;16.23;;
1471;SDS011;963;42.644;23.336;2022-10-22T05:27:39;25.10;;;16.10;;
1471;SDS011;963;42.644;23.336;2022-10-22T05:30:05;23.70;;;14.50;;
1471;SDS011;963;42.644;23.336;2022-10-22T05:32:31;22.23;;;15.00;;
1471;SDS011;963;42.644;23.336;2022-10-22T05:34:58;24.53;;;16.17;;
1471;SDS011;963;42.644;23.336;2022-10-22T05:37:23;25.70;;;16.33;;
1471;SDS011;963;42.644;23.336;2022-10-22T05:39:49;29.10;;;18.73;;
1471;SDS011;963;42.644;23.336;2022-10-22T05:42:14;31.20;;;18.73;;
1471;SDS011;963;42.644;23.336;2022-10-22T05:44:40;25.37;;;17.57;;
1471;SDS011;963;42.644;23.336;2022-10-22T05:47:05;26.10;;;17.63;;
1471;SDS011;963;42.644;23.336;2022-10-22T05:49:30;26.13;;;17.87;;
1471;SDS011;963;42.644;23.336;2022-10-22T05:51:56;25.13;;;17.80;;
1471;SDS011;963;42.644;23.336;2022-10-22T05:54:21;26.17;;;18.83;;
1471;SDS011;963;42.644;23.336;2022-10-22T05:56:47;27.93;;;20.00;;
1471;SDS011;963;42.644;23.336;2022-10-22T05:59:12;24.47;;;18.27;;
1471;SDS011;963;42.644;23.336;2022-10-22T06:01:38;29.23;;;19.87;;
1471;SDS011;963;42.644;23.336;2022-10-22T06:04:06;28.47;;;19.00;;
1471;SDS011;963;42.644;23.336;2022-10-22T06:06:38;27.00;;;17.47;;
1471;SDS011;963;42.644;23.336;2022-10-22T06:09:04;30.20;;;19.23;;
1471;SDS011;963;42.644;23.336;2022-10-22T06:11:35;33.10;;;18.30;;
1471;SDS011;963;42.644;23.336;2022-10-22T06:14:01;30.63;;;20.60;;
1471;SDS011;963;42.644;23.336;2022-10-22T06:16:30;24.50;;;19.70;;
1471;SDS011;963;42.644;23.336;2022-10-22T06:18:57;30.10;;;20.00;;
1471;SDS011;963;42.644;23.336;2022-10-22T06:21:24;32.00;;;20.40;;
1471;SDS011;963;42.644;23.336;2022-10-22T06:23:49;33.47;;;21.13;;
1471;SDS011;963;42.644;23.336;2022-10-22T06:26:14;29.33;;;21.03;;
1471;SDS011;963;42.644;23.336;2022-10-22T06:28:41;26.83;;;20.10;;
1471;SDS011;963;42.644;23.336;2022-10-22T06:31:08;25.10;;;19.67;;
1471;SDS011;963;42.644;23.336;2022-10-22T06:33:34;39.20;;;21.80;;
1471;SDS011;963;42.644;23.336;2022-10-22T06:36:07;33.43;;;20.10;;
1471;SDS011;963;42.644;23.336;2022-10-22T06:38:37;38.63;;;22.10;;
1471;SDS011;963;42.644;23.336;2022-10-22T06:41:06;31.20;;;20.50;;
1471;SDS011;963;42.644;23.336;2022-10-22T06:43:33;33.20;;;20.70;;
1471;SDS011;963;42.644;23.336;2022-10-22T06:46:03;30.07;;;22.30;;
1471;SDS011;963;42.644;23.336;2022-10-22T06:48:31;30.93;;;20.60;;
1471;SDS011;963;42.644;23.336;2022-10-22T06:51:04;28.27;;;19.83;;
1471;SDS011;963;42.644;23.336;2022-10-22T06:53:36;32.80;;;21.90;;
1471;SDS011;963;42.644;23.336;2022-10-22T06:56:06;25.97;;;20.27;;
1471;SDS011;963;42.644;23.336;2022-10-22T06:58:32;28.07;;;22.47;;
1471;SDS011;963;42.644;23.336;2022-10-22T07:00:59;32.97;;;22.60;;
1471;SDS011;963;42.644;23.336;2022-10-22T07:03:28;29.27;;;20.83;;
1471;SDS011;963;42.644;23.336;2022-10-22T07:05:54;33.57;;;22.70;;
1471;SDS011;963;42.644;23.336;2022-10-22T07:08:19;29.67;;;23.17;;
1471;SDS011;963;42.644;23.336;2022-10-22T07:10:44;44.60;;;27.07;;
1471;SDS011;963;42.644;23.336;2022-10-22T07:13:10;35.90;;;23.73;;
1471;SDS011;963;42.644;23.336;2022-10-22T07:15:35;28.33;;;22.13;;
1471;SDS011;963;42.644;23.336;2022-10-22T07:18:01;37.00;;;22.97;;
1471;SDS011;963;42.644;23.336;2022-10-22T07:20:28;31.10;;;23.57;;
1471;SDS011;963;42.644;23.336;2022-10-22T07:22:54;34.80;;;22.83;;
1471;SDS011;963;42.644;23.336;2022-10-22T07:25:19;34.70;;;23.50;;
1471;SDS011;963;42.644;23.336;2022-10-22T07:27:44;32.73;;;21.90;;
1471;SDS011;963;42.644;23.336;2022-10-22T07:30:10;30.67;;;22.27;;
1471;SDS011;963;42.644;23.336;2022-10-22T07:32:36;31.20;;;23.23;;
1471;SDS011;963;42.644;23.336;2022-10-22T07:35:01;29.50;;;22.50;;
1471;SDS011;963;42.644;23.336;2022-10-22T07:37:27;30.80;;;22.80;;
1471;SDS011;963;42.644;23.336;2022-10-22T07:39:52;30.37;;;23.47;;
1471;SDS011;963;42.644;23.336;2022-10-22T07:42:17;35.30;;;23.00;;
1471;SDS011;963;42.644;23.336;2022-10-22T07:44:43;29.73;;;22.07;;
1471;SDS011;963;42.644;23.336;2022-10-22T07:47:08;29.73;;;21.47;;
1471;SDS011;963;42.644;23.336;2022-10-22T07:49:34;28.47;;;23.00;;
1471;SDS011;963;42.644;23.336;2022-10-22T07:51:59;29.13;;;21.97;;
1471;SDS011;963;42.644;23.336;2022-10-22T07:54:24;35.40;;;24.30;;
1471;SDS011;963;42.644;23.336;2022-10-22T07:56:50;30.43;;;21.73;;
1471;SDS011;963;42.644;23.336;2022-10-22T07:59:15;32.33;;;23.20;;
1471;SDS011;963;42.644;23.336;2022-10-22T08:01:41;28.70;;;21.07;;
1471;SDS011;963;42.644;23.336;2022-10-22T08:04:07;32.83;;;23.10;;
1471;SDS011;963;42.644;23.336;2022-10-22T08:06:34;30.03;;;23.77;;
1471;SDS011;963;42.644;23.336;2022-10-22T08:09:00;30.63;;;23.30;;
1471;SDS011;963;42.644;23.336;2022-10-22T08:11:25;25.00;;;20.80;;
1471;SDS011;963;42.644;23.336;2022-10-22T08:13:51;31.33;;;21.33;;
1471;SDS011;963;42.644;23.336;2022-10-22T08:16:17;26.50;;;21.03;;
1471;SDS011;963;42.644;23.336;2022-10-22T08:18:43;34.80;;;21.93;;
1471;SDS011;963;42.644;23.336;2022-10-22T08:21:09;29.67;;;22.00;;
1471;SDS011;963;42.644;23.336;2022-10-22T08:23:35;28.20;;;19.83;;
1471;SDS011;963;42.644;23.336;2022-10-22T08:26:01;34.83;;;21.60;;
1471;SDS011;963;42.644;23.336;2022-10-22T08:28:27;32.77;;;23.70;;
1471;SDS011;963;42.644;23.336;2022-10-22T08:30:53;26.90;;;20.30;;
1471;SDS011;963;42.644;23.336;2022-10-22T08:33:19;30.40;;;22.20;;
1471;SDS011;963;42.644;23.336;2022-10-22T08:35:48;31.33;;;22.27;;
1471;SDS011;963;42.644;23.336;2022-10-22T08:38:15;31.07;;;21.60;;
1471;SDS011;963;42.644;23.336;2022-10-22T08:40:41;26.23;;;19.70;;
1471;SDS011;963;42.644;23.336;2022-10-22T08:51:07;30.33;;;21.60;;
1471;SDS011;963;42.644;23.336;2022-10-22T08:53:41;24.17;;;19.17;;
1471;SDS011;963;42.644;23.336;2022-10-22T08:56:16;30.90;;;19.20;;
1471;SDS011;963;42.644;23.336;2022-10-22T08:58:45;26.00;;;18.67;;
1471;SDS011;963;42.644;23.336;2022-10-22T09:01:20;23.00;;;16.50;;
1471;SDS011;963;42.644;23.336;2022-10-22T09:06:39;26.40;;;18.50;;
1471;SDS011;963;42.644;23.336;2022-10-22T09:09:14;26.07;;;17.87;;
1471;SDS011;963;42.644;23.336;2022-10-22T09:11:45;22.00;;;17.73;;
1471;SDS011;963;42.644;23.336;2022-10-22T09:14:14;25.33;;;17.90;;
1471;SDS011;963;42.644;23.336;2022-10-22T09:22:51;24.10;;;16.90;;
1471;SDS011;963;42.644;23.336;2022-10-22T09:25:28;23.50;;;17.43;;
1471;SDS011;963;42.644;23.336;2022-10-22T09:27:57;26.07;;;18.23;;
1471;SDS011;963;42.644;23.336;2022-10-22T09:30:25;24.97;;;18.43;;
1471;SDS011;963;42.644;23.336;2022-10-22T09:35:29;20.53;;;17.33;;
1471;SDS011;963;42.644;23.336;2022-10-22T09:37:58;33.13;;;18.20;;
1471;SDS011;963;42.644;23.336;2022-10-22T09:40:31;24.40;;;17.07;;
1471;SDS011;963;42.644;23.336;2022-10-22T09:43:05;24.77;;;18.90;;
1471;SDS011;963;42.644;23.336;2022-10-22T09:45:33;24.03;;;18.80;;
1471;SDS011;963;42.644;23.336;2022-10-22T09:48:02;26.50;;;19.17;;
1471;SDS011;963;42.644;23.336;2022-10-22T09:50:37;26.60;;;19.60;;
1471;SDS011;963;42.644;23.336;2022-10-22T09:53:18;25.03;;;17.90;;
1471;SDS011;963;42.644;23.336;2022-10-22T09:55:51;22.40;;;17.07;;
1471;SDS011;963;42.644;23.336;2022-10-22T09:58:19;23.33;;;18.30;;
1471;SDS011;963;42.644;23.336;2022-10-22T10:00:46;23.60;;;19.07;;
1471;SDS011;963;42.644;23.336;2022-10-22T10:03:18;23.93;;;19.30;;
1471;SDS011;963;42.644;23.336;2022-10-22T10:05:47;25.87;;;19.70;;
1471;SDS011;963;42.644;23.336;2022-10-22T10:08:15;24.50;;;18.60;;
1471;SDS011;963;42.644;23.336;2022-10-22T10:44:35;25.73;;;18.10;;
1471;SDS011;963;42.644;23.336;2022-10-22T10:46:49;21.97;;;17.20;;
1471;SDS011;963;42.644;23.336;2022-10-22T10:49:26;25.10;;;17.00;;
1471;SDS011;963;42.644;23.336;2022-10-22T10:55:03;31.60;;;19.63;;
1471;SDS011;963;42.644;23.336;2022-10-22T10:57:42;19.63;;;15.67;;
1471;SDS011;963;42.644;23.336;2022-10-22T11:00:16;25.73;;;16.73;;
1471;SDS011;963;42.644;23.336;2022-10-22T11:13:10;21.40;;;16.70;;
1471;SDS011;963;42.644;23.336;2022-10-22T11:15:41;17.40;;;13.40;;
1471;SDS011;963;42.644;23.336;2022-10-22T11:18:31;18.53;;;13.80;;
1471;SDS011;963;42.644;23.336;2022-10-22T11:23:44;20.00;;;13.70;;
1471;SDS011;963;42.644;23.336;2022-10-22T11:29:13;23.87;;;13.30;;
1471;SDS011;963;42.644;23.336;2022-10-22T11:31:41;17.10;;;12.33;;
1471;SDS011;963;42.644;23.336;2022-10-22T11:36:39;15.80;;;12.63;;
1471;SDS011;963;42.644;23.336;2022-10-22T11:39:13;18.97;;;11.87;;
1471;SDS011;963;42.644;23.336;2022-10-22T11:41:53;16.43;;;12.30;;
1471;SDS011;963;42.644;23.336;2022-10-22T11:44:22;16.50;;;11.77;;
1471;SDS011;963;42.644;23.336;2022-10-22T11:49:21;17.30;;;12.20;;
1471;SDS011;963;42.644;23.336;2022-10-22T11:54:55;13.93;;;10.90;;
1471;SDS011;963;42.644;23.336;2022-10-22T11:57:29;15.87;;;12.17;;
1471;SDS011;963;42.644;23.336;2022-10-22T12:00:05;11.83;;;10.63;;
1471;SDS011;963;42.644;23.336;2022-10-22T12:05:31;12.87;;;9.80;;
1471;SDS011;963;42.644;23.336;2022-10-22T12:10:35;14.80;;;10.60;;
1471;SDS011;963;42.644;23.336;2022-10-22T12:14:00;16.60;;;10.47;;
1471;SDS011;963;42.644;23.336;2022-10-22T12:16:23;13.57;;;10.93;;
1471;SDS011;963;42.644;23.336;2022-10-22T12:18:54;11.40;;;10.20;;
1471;SDS011;963;42.644;23.336;2022-10-22T12:21:24;14.60;;;10.23;;
1471;SDS011;963;42.644;23.336;2022-10-22T12:23:50;12.03;;;10.00;;
1471;SDS011;963;42.644;23.336;2022-10-22T12:26:26;14.77;;;10.50;;
1471;SDS011;963;42.644;23.336;2022-10-22T12:28:57;14.80;;;9.93;;
1471;SDS011;963;42.644;23.336;2022-10-22T12:31:23;11.63;;;10.43;;
1471;SDS011;963;42.644;23.336;2022-10-22T12:33:56;16.67;;;9.57;;
1471;SDS011;963;42.644;23.336;2022-10-22T12:36:24;12.30;;;10.00;;
1471;SDS011;963;42.644;23.336;2022-10-22T12:38:54;10.93;;;9.57;;
1471;SDS011;963;42.644;23.336;2022-10-22T12:41:33;14.90;;;9.77;;
1471;SDS011;963;42.644;23.336;2022-10-22T12:44:01;12.23;;;10.27;;
1471;SDS011;963;42.644;23.336;2022-10-22T12:46:28;11.73;;;9.70;;
1471;SDS011;963;42.644;23.336;2022-10-22T12:48:58;10.70;;;9.57;;
1471;SDS011;963;42.644;23.336;2022-10-22T12:51:25;12.43;;;10.30;;
1471;SDS011;963;42.644;23.336;2022-10-22T12:53:52;13.80;;;9.60;;
1471;SDS011;963;42.644;23.336;2022-10-22T12:56:24;13.63;;;10.70;;
1471;SDS011;963;42.644;23.336;2022-10-22T12:58:56;10.97;;;9.87;;
1471;SDS011;963;42.644;23.336;2022-10-22T13:01:25;14.40;;;10.67;;
1471;SDS011;963;42.644;23.336;2022-10-22T13:04:04;13.50;;;9.77;;
1471;SDS011;963;42.644;23.336;2022-10-22T13:06:32;12.93;;;9.40;;
1471;SDS011;963;42.644;23.336;2022-10-22T13:09:10;17.90;;;9.93;;
1471;SDS011;963;42.644;23.336;2022-10-22T13:11:40;22.70;;;9.77;;
1471;SDS011;963;42.644;23.336;2022-10-22T13:14:18;12.03;;;9.73;;
1471;SDS011;963;42.644;23.336;2022-10-22T13:22:33;12.63;;;8.77;;
1471;SDS011;963;42.644;23.336;2022-10-22T13:27:44;9.67;;;8.43;;
1471;SDS011;963;42.644;23.336;2022-10-22T13:30:16;11.20;;;9.20;;
1471;SDS011;963;42.644;23.336;2022-10-22T13:33:03;11.23;;;8.23;;
1471;SDS011;963;42.644;23.336;2022-10-22T13:35:29;11.00;;;9.13;;
1471;SDS011;963;42.644;23.336;2022-10-22T13:37:57;14.77;;;8.57;;
1471;SDS011;963;42.644;23.336;2022-10-22T13:40:24;13.57;;;9.47;;
1471;SDS011;963;42.644;23.336;2022-10-22T13:42:49;9.63;;;8.63;;
1471;SDS011;963;42.644;23.336;2022-10-22T13:45:15;12.23;;;9.23;;
1471;SDS011;963;42.644;23.336;2022-10-22T13:47:41;14.40;;;10.10;;
1471;SDS011;963;42.644;23.336;2022-10-22T13:50:12;9.60;;;8.53;;
1471;SDS011;963;42.644;23.336;2022-10-22T13:52:41;10.40;;;9.10;;
1471;SDS011;963;42.644;23.336;2022-10-22T13:55:28;13.43;;;8.77;;
1471;SDS011;963;42.644;23.336;2022-10-22T13:58:10;9.13;;;8.20;;
1471;SDS011;963;42.644;23.336;2022-10-22T14:00:38;9.70;;;8.73;;
1471;SDS011;963;42.644;23.336;2022-10-22T14:03:14;9.03;;;8.20;;
1471;SDS011;963;42.644;23.336;2022-10-22T14:05:41;11.57;;;8.30;;
1471;SDS011;963;42.644;23.336;2022-10-22T14:08:13;16.17;;;9.77;;
1471;SDS011;963;42.644;23.336;2022-10-22T14:10:40;12.57;;;8.77;;
1471;SDS011;963;42.644;23.336;2022-10-22T14:13:06;12.33;;;8.83;;
1471;SDS011;963;42.644;23.336;2022-10-22T14:15:34;20.03;;;11.00;;
1471;SDS011;963;42.644;23.336;2022-10-22T14:17:59;14.00;;;9.33;;
1471;SDS011;963;42.644;23.336;2022-10-22T14:20:26;14.13;;;9.23;;
1471;SDS011;963;42.644;23.336;2022-10-22T14:22:54;11.30;;;9.33;;
1471;SDS011;963;42.644;23.336;2022-10-22T14:25:24;11.37;;;9.63;;
1471;SDS011;963;42.644;23.336;2022-10-22T14:27:50;15.50;;;9.67;;
1471;SDS011;963;42.644;23.336;2022-10-22T14:30:17;13.17;;;9.77;;
1471;SDS011;963;42.644;23.336;2022-10-22T14:32:44;11.60;;;9.73;;
1471;SDS011;963;42.644;23.336;2022-10-22T14:35:14;12.87;;;10.07;;
1471;SDS011;963;42.644;23.336;2022-10-22T14:37:42;20.43;;;10.20;;
1471;SDS011;963;42.644;23.336;2022-10-22T14:40:07;15.63;;;11.10;;
1471;SDS011;963;42.644;23.336;2022-10-22T14:42:38;22.37;;;11.17;;
1471;SDS011;963;42.644;23.336;2022-10-22T14:45:06;15.90;;;9.50;;
1471;SDS011;963;42.644;23.336;2022-10-22T14:47:45;17.33;;;10.67;;
1471;SDS011;963;42.644;23.336;2022-10-22T14:50:11;16.20;;;10.43;;
1471;SDS011;963;42.644;23.336;2022-10-22T14:52:38;13.73;;;9.07;;
1471;SDS011;963;42.644;23.336;2022-10-22T14:55:04;15.00;;;10.73;;
1471;SDS011;963;42.644;23.336;2022-10-22T14:57:30;14.77;;;11.80;;
1471;SDS011;963;42.644;23.336;2022-10-22T14:59:56;16.10;;;11.97;;
1471;SDS011;963;42.644;23.336;2022-10-22T15:02:21;17.97;;;11.53;;
1471;SDS011;963;42.644;23.336;2022-10-22T15:04:47;16.00;;;11.87;;
1471;SDS011;963;42.644;23.336;2022-10-22T15:07:13;16.13;;;10.63;;
1471;SDS011;963;42.644;23.336;2022-10-22T15:09:39;16.53;;;10.90;;
1471;SDS011;963;42.644;23.336;2022-10-22T15:12:04;21.87;;;12.37;;
1471;SDS011;963;42.644;23.336;2022-10-22T15:14:30;20.90;;;13.07;;
1471;SDS011;963;42.644;23.336;2022-10-22T15:16:55;19.13;;;12.73;;
1471;SDS011;963;42.644;23.336;2022-10-22T15:19:21;20.90;;;12.20;;
1471;SDS011;963;42.644;23.336;2022-10-22T15:21:46;28.90;;;13.27;;
1471;SDS011;963;42.644;23.336;2022-10-22T15:24:11;16.00;;;13.53;;
1471;SDS011;963;42.644;23.336;2022-10-22T15:26:37;19.03;;;12.13;;
1471;SDS011;963;42.644;23.336;2022-10-22T15:29:02;16.80;;;11.53;;
1471;SDS011;963;42.644;23.336;2022-10-22T15:31:45;17.70;;;11.87;;
1471;SDS011;963;42.644;23.336;2022-10-22T15:34:34;17.53;;;11.77;;
1471;SDS011;963;42.644;23.336;2022-10-22T15:37:01;26.90;;;13.57;;
1471;SDS011;963;42.644;23.336;2022-10-22T15:39:28;20.20;;;12.80;;
1471;SDS011;963;42.644;23.336;2022-10-22T15:41:55;21.67;;;13.37;;
1471;SDS011;963;42.644;23.336;2022-10-22T15:44:22;19.23;;;11.90;;
1471;SDS011;963;42.644;23.336;2022-10-22T15:46:49;15.03;;;12.80;;
1471;SDS011;963;42.644;23.336;2022-10-22T15:49:14;14.53;;;12.80;;
1471;SDS011;963;42.644;23.336;2022-10-22T15:51:40;18.50;;;13.20;;
1471;SDS011;963;42.644;23.336;2022-10-22T15:54:09;16.33;;;12.00;;
1471;SDS011;963;42.644;23.336;2022-10-22T15:56:38;16.30;;;12.47;;
1471;SDS011;963;42.644;23.336;2022-10-22T15:59:03;18.40;;;13.03;;
1471;SDS011;963;42.644;23.336;2022-10-22T16:01:29;17.40;;;10.97;;
1471;SDS011;963;42.644;23.336;2022-10-22T16:03:57;17.60;;;11.00;;
1471;SDS011;963;42.644;23.336;2022-10-22T16:06:27;15.70;;;11.47;;
1471;SDS011;963;42.644;23.336;2022-10-22T16:08:55;15.73;;;10.30;;
1471;SDS011;963;42.644;23.336;2022-10-22T16:11:21;22.00;;;11.37;;
1471;SDS011;963;42.644;23.336;2022-10-22T16:13:47;16.23;;;12.30;;
1471;SDS011;963;42.644;23.336;2022-10-22T16:16:16;15.07;;;11.37;;
1471;SDS011;963;42.644;23.336;2022-10-22T16:18:41;15.70;;;10.83;;
1471;SDS011;963;42.644;23.336;2022-10-22T16:21:10;15.60;;;10.80;;
1471;SDS011;963;42.644;23.336;2022-10-22T16:23:37;14.80;;;11.70;;
1471;SDS011;963;42.644;23.336;2022-10-22T16:26:02;17.33;;;10.13;;
1471;SDS011;963;42.644;23.336;2022-10-22T16:28:28;17.80;;;11.63;;
1471;SDS011;963;42.644;23.336;2022-10-22T16:30:53;15.67;;;11.57;;
1471;SDS011;963;42.644;23.336;2022-10-22T16:33:18;14.00;;;11.10;;
1471;SDS011;963;42.644;23.336;2022-10-22T16:35:44;13.23;;;11.43;;
1471;SDS011;963;42.644;23.336;2022-10-22T16:38:12;18.37;;;15.70;;
1471;SDS011;963;42.644;23.336;2022-10-22T16:40:37;16.30;;;12.57;;
1471;SDS011;963;42.644;23.336;2022-10-22T16:43:02;24.77;;;17.73;;
1471;SDS011;963;42.644;23.336;2022-10-22T16:45:28;18.13;;;13.60;;
1471;SDS011;963;42.644;23.336;2022-10-22T16:47:54;25.50;;;18.13;;
1471;SDS011;963;42.644;23.336;2022-10-22T16:50:19;17.33;;;13.63;;
1471;SDS011;963;42.644;23.336;2022-10-22T16:52:44;19.10;;;13.53;;
1471;SDS011;963;42.644;23.336;2022-10-22T16:55:10;15.87;;;13.60;;
1471;SDS011;963;42.644;23.336;2022-10-22T16:57:35;22.13;;;14.43;;